sensor_id;sensor_type;location;lat;lon;timestamp;pressure;altitude;pressure_sealevel;temperature;humidity
71559;BME280;59382;43.852;25.952;2023-04-04T00:01:24;100477.53;;;9.68;68.84
71559;BME280;59382;43.852;25.952;2023-04-04T00:03:50;100465.09;;;9.67;68.77
71559;BME280;59382;43.852;25.952;2023-04-04T00:06:18;100522.94;;;9.58;69.11
71559;BME280;59382;43.852;25.952;2023-04-04T00:08:43;100455.41;;;9.53;68.96
71559;BME280;59382;43.852;25.952;2023-04-04T00:11:09;100431.81;;;9.42;69.18
71559;BME280;59382;43.852;25.952;2023-04-04T00:13:35;100445.47;;;9.47;69.55
71559;BME280;59382;43.852;25.952;2023-04-04T00:16:00;100440.91;;;9.48;69.35
71559;BME280;59382;43.852;25.952;2023-04-04T00:18:26;100428.91;;;9.37;69.67
71559;BME280;59382;43.852;25.952;2023-04-04T00:20:51;100431.38;;;9.45;69.46
71559;BME280;59382;43.852;25.952;2023-04-04T00:23:17;100450.22;;;9.45;69.40
71559;BME280;59382;43.852;25.952;2023-04-04T00:25:48;100391.63;;;9.34;69.45
71559;BME280;59382;43.852;25.952;2023-04-04T00:28:13;100394.94;;;9.36;69.47
71559;BME280;59382;43.852;25.952;2023-04-04T00:30:40;100413.56;;;9.44;69.52
71559;BME280;59382;43.852;25.952;2023-04-04T00:33:05;100414.84;;;9.35;69.11
71559;BME280;59382;43.852;25.952;2023-04-04T00:35:31;100397.84;;;9.35;68.79
71559;BME280;59382;43.852;25.952;2023-04-04T00:37:57;100415.25;;;9.32;68.48
71559;BME280;59382;43.852;25.952;2023-04-04T00:40:22;100386.28;;;9.21;68.24
71559;BME280;59382;43.852;25.952;2023-04-04T00:42:48;100410.09;;;9.24;67.83
71559;BME280;59382;43.852;25.952;2023-04-04T00:45:14;100428.75;;;9.19;67.96
71559;BME280;59382;43.852;25.952;2023-04-04T00:47:42;100395.00;;;9.10;68.10
71559;BME280;59382;43.852;25.952;2023-04-04T00:50:07;100406.19;;;9.07;68.14
71559;BME280;59382;43.852;25.952;2023-04-04T00:52:33;100396.25;;;9.01;68.68
71559;BME280;59382;43.852;25.952;2023-04-04T00:54:59;100384.06;;;8.92;68.91
71559;BME280;59382;43.852;25.952;2023-04-04T00:57:26;100430.63;;;8.99;69.03
71559;BME280;59382;43.852;25.952;2023-04-04T00:59:52;100426.91;;;8.94;69.08
71559;BME280;59382;43.852;25.952;2023-04-04T01:02:18;100418.22;;;8.98;69.54
71559;BME280;59382;43.852;25.952;2023-04-04T01:04:44;100411.16;;;8.97;68.90
71559;BME280;59382;43.852;25.952;2023-04-04T01:07:10;100412.00;;;8.85;68.87
71559;BME280;59382;43.852;25.952;2023-04-04T01:09:36;100440.34;;;8.87;68.73
71559;BME280;59382;43.852;25.952;2023-04-04T01:12:01;100393.78;;;8.74;68.67
71559;BME280;59382;43.852;25.952;2023-04-04T01:14:27;100416.53;;;8.84;68.03
71559;BME280;59382;43.852;25.952;2023-04-04T01:16:53;100400.81;;;8.88;68.22
71559;BME280;59382;43.852;25.952;2023-04-04T01:19:27;100351.16;;;8.58;68.40
71559;BME280;59382;43.852;25.952;2023-04-04T01:21:56;100416.75;;;8.83;68.25
71559;BME280;59382;43.852;25.952;2023-04-04T01:24:22;100374.75;;;8.75;68.29
71559;BME280;59382;43.852;25.952;2023-04-04T01:26:49;100409.09;;;8.86;68.18
71559;BME280;59382;43.852;25.952;2023-04-04T01:29:15;100373.94;;;8.75;68.29
71559;BME280;59382;43.852;25.952;2023-04-04T01:31:45;100375.56;;;8.69;67.93
71559;BME280;59382;43.852;25.952;2023-04-04T01:34:23;100408.69;;;8.76;68.18
71559;BME280;59382;43.852;25.952;2023-04-04T01:37:05;100400.41;;;8.71;67.77
71559;BME280;59382;43.852;25.952;2023-04-04T01:39:42;100368.56;;;8.55;67.90
71559;BME280;59382;43.852;25.952;2023-04-04T01:42:12;100361.91;;;8.51;67.77
71559;BME280;59382;43.852;25.952;2023-04-04T01:44:38;100405.38;;;8.55;67.56
71559;BME280;59382;43.852;25.952;2023-04-04T01:47:07;100387.56;;;8.47;67.78
71559;BME280;59382;43.852;25.952;2023-04-04T01:49:35;100396.47;;;8.54;67.46
71559;BME280;59382;43.852;25.952;2023-04-04T01:52:02;100401.66;;;8.49;67.39
71559;BME280;59382;43.852;25.952;2023-04-04T01:54:27;100412.81;;;8.46;67.22
71559;BME280;59382;43.852;25.952;2023-04-04T01:56:53;100412.38;;;8.43;67.39
71559;BME280;59382;43.852;25.952;2023-04-04T01:59:19;100373.09;;;8.29;67.56
71559;BME280;59382;43.852;25.952;2023-04-04T02:01:44;100382.59;;;8.31;67.87
71559;BME280;59382;43.852;25.952;2023-04-04T02:04:10;100404.91;;;8.25;67.91
71559;BME280;59382;43.852;25.952;2023-04-04T02:06:37;100397.06;;;8.37;67.84
71559;BME280;59382;43.852;25.952;2023-04-04T02:09:03;100381.56;;;8.32;67.99
71559;BME280;59382;43.852;25.952;2023-04-04T02:11:32;100396.22;;;8.23;68.10
71559;BME280;59382;43.852;25.952;2023-04-04T02:13:58;100390.38;;;8.13;68.29
71559;BME280;59382;43.852;25.952;2023-04-04T02:16:24;100398.28;;;8.21;68.32
71559;BME280;59382;43.852;25.952;2023-04-04T02:18:50;100402.38;;;8.17;68.23
71559;BME280;59382;43.852;25.952;2023-04-04T02:21:15;100405.25;;;8.16;68.57
71559;BME280;59382;43.852;25.952;2023-04-04T02:23:41;100413.53;;;8.14;68.67
71559;BME280;59382;43.852;25.952;2023-04-04T02:26:06;100406.91;;;8.10;68.57
71559;BME280;59382;43.852;25.952;2023-04-04T02:28:32;100432.56;;;8.19;68.59
71559;BME280;59382;43.852;25.952;2023-04-04T02:31:01;100411.06;;;8.19;68.51
71559;BME280;59382;43.852;25.952;2023-04-04T02:33:28;100453.84;;;8.14;68.77
71559;BME280;59382;43.852;25.952;2023-04-04T02:35:57;100384.78;;;8.08;68.61
71559;BME280;59382;43.852;25.952;2023-04-04T02:38:23;100398.63;;;8.05;68.64
71559;BME280;59382;43.852;25.952;2023-04-04T02:40:50;100396.38;;;8.08;68.84
71559;BME280;59382;43.852;25.952;2023-04-04T02:43:15;100366.34;;;7.92;68.84
71559;BME280;59382;43.852;25.952;2023-04-04T02:45:41;100400.66;;;7.96;68.96
71559;BME280;59382;43.852;25.952;2023-04-04T02:48:06;100389.91;;;7.90;68.95
71559;BME280;59382;43.852;25.952;2023-04-04T02:50:32;100389.03;;;7.83;69.15
71559;BME280;59382;43.852;25.952;2023-04-04T02:52:59;100388.59;;;7.73;69.60
71559;BME280;59382;43.852;25.952;2023-04-04T02:55:25;100383.00;;;7.68;69.70
71559;BME280;59382;43.852;25.952;2023-04-04T02:57:51;100368.28;;;7.57;69.68
71559;BME280;59382;43.852;25.952;2023-04-04T03:00:19;100373.06;;;7.62;69.99
71559;BME280;59382;43.852;25.952;2023-04-04T03:02:52;100356.34;;;7.60;69.97
71559;BME280;59382;43.852;25.952;2023-04-04T03:05:18;100382.34;;;7.59;70.07
71559;BME280;59382;43.852;25.952;2023-04-04T03:07:44;100342.63;;;7.42;70.26
71559;BME280;59382;43.852;25.952;2023-04-04T03:10:10;100372.78;;;7.44;70.20
71559;BME280;59382;43.852;25.952;2023-04-04T03:12:35;100382.72;;;7.50;70.35
71559;BME280;59382;43.852;25.952;2023-04-04T03:15:01;100393.50;;;7.56;70.35
71559;BME280;59382;43.852;25.952;2023-04-04T03:17:26;100415.81;;;7.57;70.04
71559;BME280;59382;43.852;25.952;2023-04-04T03:19:53;100366.78;;;7.42;69.81
71559;BME280;59382;43.852;25.952;2023-04-04T03:22:18;100382.25;;;7.40;69.63
71559;BME280;59382;43.852;25.952;2023-04-04T03:24:44;100411.16;;;7.38;70.12
71559;BME280;59382;43.852;25.952;2023-04-04T03:27:10;100444.16;;;7.32;69.75
71559;BME280;59382;43.852;25.952;2023-04-04T03:29:35;100402.66;;;7.34;69.91
71559;BME280;59382;43.852;25.952;2023-04-04T03:32:01;100419.75;;;7.27;70.33
71559;BME280;59382;43.852;25.952;2023-04-04T03:34:27;100420.16;;;7.24;70.00
71559;BME280;59382;43.852;25.952;2023-04-04T03:36:52;100418.56;;;7.36;70.04
71559;BME280;59382;43.852;25.952;2023-04-04T03:39:18;100426.44;;;7.37;70.10
71559;BME280;59382;43.852;25.952;2023-04-04T03:41:43;100412.09;;;7.24;70.33
71559;BME280;59382;43.852;25.952;2023-04-04T03:44:09;100442.09;;;7.34;70.65
71559;BME280;59382;43.852;25.952;2023-04-04T03:46:35;100433.03;;;7.35;70.50
71559;BME280;59382;43.852;25.952;2023-04-04T03:49:00;100411.91;;;7.25;70.78
71559;BME280;59382;43.852;25.952;2023-04-04T03:51:26;100429.97;;;7.38;70.72
71559;BME280;59382;43.852;25.952;2023-04-04T03:53:52;100446.69;;;7.40;70.59
71559;BME280;59382;43.852;25.952;2023-04-04T03:56:18;100443.72;;;7.28;70.40
71559;BME280;59382;43.852;25.952;2023-04-04T03:58:44;100421.78;;;7.18;70.46
71559;BME280;59382;43.852;25.952;2023-04-04T04:01:10;100440.75;;;7.17;70.82
71559;BME280;59382;43.852;25.952;2023-04-04T04:03:35;100413.41;;;7.00;70.91
71559;BME280;59382;43.852;25.952;2023-04-04T04:06:01;100407.63;;;7.03;70.69
71559;BME280;59382;43.852;25.952;2023-04-04T04:08:27;100448.94;;;7.09;70.78
71559;BME280;59382;43.852;25.952;2023-04-04T04:10:53;100401.59;;;6.95;71.19
71559;BME280;59382;43.852;25.952;2023-04-04T04:13:19;100428.25;;;7.03;70.96
71559;BME280;59382;43.852;25.952;2023-04-04T04:15:44;100408.34;;;6.91;71.15
71559;BME280;59382;43.852;25.952;2023-04-04T04:18:10;100396.75;;;6.84;71.47
71559;BME280;59382;43.852;25.952;2023-04-04T04:20:35;100434.00;;;7.00;71.37
71559;BME280;59382;43.852;25.952;2023-04-04T04:23:01;100423.66;;;6.90;71.47
71559;BME280;59382;43.852;25.952;2023-04-04T04:25:26;100425.97;;;7.00;71.49
71559;BME280;59382;43.852;25.952;2023-04-04T04:27:55;100450.50;;;6.97;71.38
71559;BME280;59382;43.852;25.952;2023-04-04T04:30:27;100446.81;;;6.98;71.77
71559;BME280;59382;43.852;25.952;2023-04-04T04:32:55;100422.03;;;6.96;71.44
71559;BME280;59382;43.852;25.952;2023-04-04T04:35:21;100425.75;;;6.95;71.49
71559;BME280;59382;43.852;25.952;2023-04-04T04:37:49;100422.41;;;6.93;71.46
71559;BME280;59382;43.852;25.952;2023-04-04T04:40:15;100407.97;;;6.94;71.46
71559;BME280;59382;43.852;25.952;2023-04-04T04:42:45;100424.53;;;7.04;71.57
71559;BME280;59382;43.852;25.952;2023-04-04T04:45:10;100447.19;;;6.95;71.06
71559;BME280;59382;43.852;25.952;2023-04-04T04:47:36;100429.44;;;6.94;71.64
71559;BME280;59382;43.852;25.952;2023-04-04T04:50:02;100438.44;;;6.86;71.49
71559;BME280;59382;43.852;25.952;2023-04-04T04:52:28;100466.38;;;6.92;71.39
71559;BME280;59382;43.852;25.952;2023-04-04T04:54:56;100456.03;;;6.89;71.77
71559;BME280;59382;43.852;25.952;2023-04-04T04:57:21;100451.28;;;6.91;71.52
71559;BME280;59382;43.852;25.952;2023-04-04T04:59:47;100444.25;;;6.90;72.06
71559;BME280;59382;43.852;25.952;2023-04-04T05:02:14;100419.28;;;6.62;71.93
71559;BME280;59382;43.852;25.952;2023-04-04T05:04:40;100451.28;;;6.91;71.87
71559;BME280;59382;43.852;25.952;2023-04-04T05:07:09;100446.25;;;6.81;72.09
71559;BME280;59382;43.852;25.952;2023-04-04T05:09:36;100498.28;;;6.87;71.85
71559;BME280;59382;43.852;25.952;2023-04-04T05:12:03;100478.88;;;6.85;71.83
71559;BME280;59382;43.852;25.952;2023-04-04T05:14:28;100449.91;;;6.74;72.11
71559;BME280;59382;43.852;25.952;2023-04-04T05:16:54;100432.13;;;6.73;72.27
71559;BME280;59382;43.852;25.952;2023-04-04T05:19:19;100480.94;;;6.83;72.59
71559;BME280;59382;43.852;25.952;2023-04-04T05:21:45;100477.16;;;6.77;72.29
71559;BME280;59382;43.852;25.952;2023-04-04T05:24:10;100463.53;;;6.79;72.79
71559;BME280;59382;43.852;25.952;2023-04-04T05:26:37;100456.91;;;6.75;72.37
71559;BME280;59382;43.852;25.952;2023-04-04T05:29:03;100485.91;;;6.86;72.59
71559;BME280;59382;43.852;25.952;2023-04-04T05:31:28;100495.88;;;6.92;72.43
71559;BME280;59382;43.852;25.952;2023-04-04T05:33:54;100485.75;;;6.94;72.02
71559;BME280;59382;43.852;25.952;2023-04-04T05:36:20;100491.28;;;6.86;72.45
71559;BME280;59382;43.852;25.952;2023-04-04T05:38:46;100504.81;;;6.78;72.08
71559;BME280;59382;43.852;25.952;2023-04-04T05:41:12;100507.75;;;6.83;72.08
71559;BME280;59382;43.852;25.952;2023-04-04T05:43:37;100493.19;;;6.71;72.71
71559;BME280;59382;43.852;25.952;2023-04-04T05:46:03;100555.56;;;6.79;72.65
71559;BME280;59382;43.852;25.952;2023-04-04T05:48:28;100564.19;;;6.75;72.32
71559;BME280;59382;43.852;25.952;2023-04-04T05:50:54;100528.16;;;6.63;71.95
71559;BME280;59382;43.852;25.952;2023-04-04T05:53:20;100546.94;;;6.63;72.09
71559;BME280;59382;43.852;25.952;2023-04-04T05:55:45;100547.03;;;6.55;72.37
71559;BME280;59382;43.852;25.952;2023-04-04T05:58:11;100530.06;;;6.48;72.45
71559;BME280;59382;43.852;25.952;2023-04-04T06:00:37;100546.97;;;6.48;72.71
71559;BME280;59382;43.852;25.952;2023-04-04T06:03:03;100528.78;;;6.44;72.73
71559;BME280;59382;43.852;25.952;2023-04-04T06:05:28;100545.94;;;6.49;72.50
71559;BME280;59382;43.852;25.952;2023-04-04T06:07:54;100503.00;;;6.43;72.95
71559;BME280;59382;43.852;25.952;2023-04-04T06:10:20;100518.97;;;6.51;72.76
71559;BME280;59382;43.852;25.952;2023-04-04T06:12:45;100483.97;;;6.38;72.47
71559;BME280;59382;43.852;25.952;2023-04-04T06:15:11;100498.72;;;6.48;72.50
71559;BME280;59382;43.852;25.952;2023-04-04T06:17:36;100494.97;;;6.43;72.74
71559;BME280;59382;43.852;25.952;2023-04-04T06:20:02;100495.91;;;6.35;73.09
71559;BME280;59382;43.852;25.952;2023-04-04T06:22:29;100492.78;;;6.32;72.71
71559;BME280;59382;43.852;25.952;2023-04-04T06:24:54;100506.06;;;6.40;72.30
71559;BME280;59382;43.852;25.952;2023-04-04T06:27:20;100509.13;;;6.37;72.41
71559;BME280;59382;43.852;25.952;2023-04-04T06:29:46;100507.91;;;6.39;71.89
71559;BME280;59382;43.852;25.952;2023-04-04T06:32:12;100503.50;;;6.32;71.96
71559;BME280;59382;43.852;25.952;2023-04-04T06:34:38;100515.50;;;6.36;72.21
71559;BME280;59382;43.852;25.952;2023-04-04T06:37:03;100527.03;;;6.36;72.36
71559;BME280;59382;43.852;25.952;2023-04-04T06:39:29;100504.63;;;6.23;71.93
71559;BME280;59382;43.852;25.952;2023-04-04T06:41:56;100504.53;;;6.31;72.42
71559;BME280;59382;43.852;25.952;2023-04-04T06:44:21;100492.25;;;6.22;72.38
71559;BME280;59382;43.852;25.952;2023-04-04T06:46:47;100499.16;;;6.31;72.03
71559;BME280;59382;43.852;25.952;2023-04-04T06:49:12;100493.53;;;6.26;72.04
71559;BME280;59382;43.852;25.952;2023-04-04T06:51:39;100472.09;;;6.26;71.80
71559;BME280;59382;43.852;25.952;2023-04-04T06:54:06;100448.94;;;6.18;71.99
71559;BME280;59382;43.852;25.952;2023-04-04T06:56:31;100483.72;;;6.33;71.75
71559;BME280;59382;43.852;25.952;2023-04-04T06:58:57;100484.63;;;6.40;71.69
71559;BME280;59382;43.852;25.952;2023-04-04T07:01:22;100483.78;;;6.39;71.51
71559;BME280;59382;43.852;25.952;2023-04-04T07:03:51;100478.25;;;6.41;71.66
71559;BME280;59382;43.852;25.952;2023-04-04T07:06:18;100487.41;;;6.32;71.99
71559;BME280;59382;43.852;25.952;2023-04-04T07:08:46;100474.66;;;6.34;71.97
71559;BME280;59382;43.852;25.952;2023-04-04T07:11:11;100469.94;;;6.36;71.53
71559;BME280;59382;43.852;25.952;2023-04-04T07:13:38;100467.44;;;6.34;71.41
71559;BME280;59382;43.852;25.952;2023-04-04T07:16:04;100474.84;;;6.32;71.70
71559;BME280;59382;43.852;25.952;2023-04-04T07:18:29;100471.06;;;6.27;72.06
71559;BME280;59382;43.852;25.952;2023-04-04T07:20:56;100459.66;;;6.18;72.02
71559;BME280;59382;43.852;25.952;2023-04-04T07:23:23;100470.44;;;6.25;71.74
71559;BME280;59382;43.852;25.952;2023-04-04T07:25:48;100468.84;;;6.30;71.80
71559;BME280;59382;43.852;25.952;2023-04-04T07:28:14;100439.06;;;6.19;72.29
71559;BME280;59382;43.852;25.952;2023-04-04T07:30:40;100444.78;;;6.16;72.04
71559;BME280;59382;43.852;25.952;2023-04-04T07:33:06;100465.09;;;6.25;72.38
71559;BME280;59382;43.852;25.952;2023-04-04T07:35:31;100458.03;;;6.24;72.36
71559;BME280;59382;43.852;25.952;2023-04-04T07:37:57;100466.22;;;6.16;72.32
71559;BME280;59382;43.852;25.952;2023-04-04T07:40:22;100451.72;;;6.10;72.33
71559;BME280;59382;43.852;25.952;2023-04-04T07:42:48;100454.16;;;6.05;71.87
71559;BME280;59382;43.852;25.952;2023-04-04T07:45:16;100456.16;;;6.03;72.23
71559;BME280;59382;43.852;25.952;2023-04-04T07:47:43;100484.69;;;6.11;71.94
71559;BME280;59382;43.852;25.952;2023-04-04T07:50:10;100472.34;;;6.10;72.39
71559;BME280;59382;43.852;25.952;2023-04-04T07:52:36;100494.13;;;6.07;72.73
71559;BME280;59382;43.852;25.952;2023-04-04T07:55:02;100482.84;;;6.11;72.50
71559;BME280;59382;43.852;25.952;2023-04-04T07:57:28;100490.44;;;6.07;72.15
71559;BME280;59382;43.852;25.952;2023-04-04T07:59:55;100481.78;;;6.06;72.03
71559;BME280;59382;43.852;25.952;2023-04-04T08:02:20;100484.69;;;6.11;72.34
71559;BME280;59382;43.852;25.952;2023-04-04T08:04:46;100452.03;;;6.00;72.20
71559;BME280;59382;43.852;25.952;2023-04-04T08:07:12;100493.38;;;6.13;72.19
71559;BME280;59382;43.852;25.952;2023-04-04T08:09:37;100482.66;;;6.13;72.11
71559;BME280;59382;43.852;25.952;2023-04-04T08:12:03;100487.00;;;6.14;71.98
71559;BME280;59382;43.852;25.952;2023-04-04T08:14:30;100475.25;;;6.15;72.08
71559;BME280;59382;43.852;25.952;2023-04-04T08:16:56;100477.31;;;6.13;72.32
71559;BME280;59382;43.852;25.952;2023-04-04T08:19:22;100482.19;;;6.09;72.46
71559;BME280;59382;43.852;25.952;2023-04-04T08:21:47;100491.28;;;6.08;72.30
71559;BME280;59382;43.852;25.952;2023-04-04T08:24:17;100480.00;;;6.13;72.50
71559;BME280;59382;43.852;25.952;2023-04-04T08:26:43;100485.59;;;6.18;72.03
71559;BME280;59382;43.852;25.952;2023-04-04T08:29:09;100462.81;;;6.07;71.50
71559;BME280;59382;43.852;25.952;2023-04-04T08:31:34;100473.59;;;6.14;71.60
71559;BME280;59382;43.852;25.952;2023-04-04T08:34:00;100500.84;;;6.17;71.95
71559;BME280;59382;43.852;25.952;2023-04-04T08:36:27;100444.28;;;6.06;71.31
71559;BME280;59382;43.852;25.952;2023-04-04T08:38:52;100457.91;;;6.11;71.50
71559;BME280;59382;43.852;25.952;2023-04-04T08:41:18;100462.88;;;6.14;71.30
71559;BME280;59382;43.852;25.952;2023-04-04T08:43:46;100464.47;;;6.08;71.63
71559;BME280;59382;43.852;25.952;2023-04-04T08:46:22;100471.81;;;5.99;71.82
71559;BME280;59382;43.852;25.952;2023-04-04T08:48:50;100461.16;;;6.06;71.43
71559;BME280;59382;43.852;25.952;2023-04-04T08:51:18;100453.31;;;6.04;71.63
71559;BME280;59382;43.852;25.952;2023-04-04T08:53:44;100469.00;;;6.07;71.67
71559;BME280;59382;43.852;25.952;2023-04-04T08:56:12;100456.25;;;6.10;72.17
71559;BME280;59382;43.852;25.952;2023-04-04T08:58:39;100475.25;;;6.15;72.21
71559;BME280;59382;43.852;25.952;2023-04-04T09:01:07;100458.38;;;6.14;71.80
71559;BME280;59382;43.852;25.952;2023-04-04T09:03:33;100449.50;;;6.14;71.80
71559;BME280;59382;43.852;25.952;2023-04-04T09:06:01;100444.41;;;6.19;71.61
71559;BME280;59382;43.852;25.952;2023-04-04T09:08:29;100471.56;;;6.16;71.61
71559;BME280;59382;43.852;25.952;2023-04-04T09:10:54;100489.97;;;6.19;71.51
71559;BME280;59382;43.852;25.952;2023-04-04T09:13:21;100467.22;;;6.15;71.55
71559;BME280;59382;43.852;25.952;2023-04-04T09:15:49;100478.88;;;6.07;72.01
71559;BME280;59382;43.852;25.952;2023-04-04T09:18:16;100469.84;;;6.08;71.74
71559;BME280;59382;43.852;25.952;2023-04-04T09:20:46;100480.56;;;6.08;71.98
71559;BME280;59382;43.852;25.952;2023-04-04T09:23:16;100459.94;;;6.08;71.55
71559;BME280;59382;43.852;25.952;2023-04-04T09:25:49;100465.28;;;6.08;72.23
71559;BME280;59382;43.852;25.952;2023-04-04T09:28:16;100450.81;;;6.03;71.65
71559;BME280;59382;43.852;25.952;2023-04-04T09:30:42;100453.97;;;6.07;72.13
71559;BME280;59382;43.852;25.952;2023-04-04T09:33:12;100464.16;;;6.18;71.71
71559;BME280;59382;43.852;25.952;2023-04-04T09:35:43;100461.66;;;6.16;72.06
71559;BME280;59382;43.852;25.952;2023-04-04T09:38:09;100451.28;;;6.07;72.04
71559;BME280;59382;43.852;25.952;2023-04-04T09:40:36;100467.41;;;6.13;71.71
71559;BME280;59382;43.852;25.952;2023-04-04T09:43:04;100447.47;;;6.16;71.63
71559;BME280;59382;43.852;25.952;2023-04-04T09:45:36;100472.75;;;6.13;71.92
71559;BME280;59382;43.852;25.952;2023-04-04T09:48:05;100457.91;;;6.11;71.80
71559;BME280;59382;43.852;25.952;2023-04-04T09:50:31;100461.25;;;6.13;71.80
71559;BME280;59382;43.852;25.952;2023-04-04T09:52:58;100456.44;;;6.08;71.96
71559;BME280;59382;43.852;25.952;2023-04-04T09:55:35;100473.22;;;6.17;71.77
71559;BME280;59382;43.852;25.952;2023-04-04T09:58:18;100459.13;;;6.08;72.58
71559;BME280;59382;43.852;25.952;2023-04-04T10:00:48;100481.91;;;6.19;72.35
71559;BME280;59382;43.852;25.952;2023-04-04T10:03:14;100469.53;;;6.18;72.33
71559;BME280;59382;43.852;25.952;2023-04-04T10:05:41;100475.63;;;6.26;71.95
71559;BME280;59382;43.852;25.952;2023-04-04T10:08:16;100468.16;;;6.22;72.18
71559;BME280;59382;43.852;25.952;2023-04-04T10:10:55;100468.53;;;6.19;72.61
71559;BME280;59382;43.852;25.952;2023-04-04T10:13:22;100463.41;;;6.24;72.13
71559;BME280;59382;43.852;25.952;2023-04-04T10:15:48;100457.81;;;6.19;72.61
71559;BME280;59382;43.852;25.952;2023-04-04T10:18:15;100479.06;;;6.20;72.58
71559;BME280;59382;43.852;25.952;2023-04-04T10:20:42;100474.97;;;6.24;72.53
71559;BME280;59382;43.852;25.952;2023-04-04T10:23:07;100469.13;;;6.21;73.06
71559;BME280;59382;43.852;25.952;2023-04-04T10:25:33;100497.88;;;6.27;72.39
71559;BME280;59382;43.852;25.952;2023-04-04T10:28:01;100474.13;;;6.24;73.01
71559;BME280;59382;43.852;25.952;2023-04-04T10:30:27;100464.72;;;6.28;72.71
71559;BME280;59382;43.852;25.952;2023-04-04T10:33:01;100483.72;;;6.33;72.83
71559;BME280;59382;43.852;25.952;2023-04-04T10:35:31;100469.13;;;6.35;72.74
71559;BME280;59382;43.852;25.952;2023-04-04T10:37:59;100467.00;;;6.31;72.85
71559;BME280;59382;43.852;25.952;2023-04-04T10:40:30;100469.69;;;6.31;73.13
71559;BME280;59382;43.852;25.952;2023-04-04T10:43:01;100482.44;;;6.29;72.78
71559;BME280;59382;43.852;25.952;2023-04-04T10:45:28;100470.69;;;6.30;73.21
71559;BME280;59382;43.852;25.952;2023-04-04T10:47:55;100448.09;;;6.18;72.98
71559;BME280;59382;43.852;25.952;2023-04-04T10:50:21;100494.38;;;6.26;72.78
71559;BME280;59382;43.852;25.952;2023-04-04T10:52:47;100484.47;;;6.27;72.98
71559;BME280;59382;43.852;25.952;2023-04-04T10:55:14;100449.50;;;6.14;73.28
71559;BME280;59382;43.852;25.952;2023-04-04T10:57:43;100460.03;;;6.15;73.76
71559;BME280;59382;43.852;25.952;2023-04-04T11:00:14;100457.25;;;6.23;73.51
71559;BME280;59382;43.852;25.952;2023-04-04T11:02:59;100457.16;;;6.17;72.99
71559;BME280;59382;43.852;25.952;2023-04-04T11:05:36;100456.50;;;6.15;73.13
71559;BME280;59382;43.852;25.952;2023-04-04T11:08:10;100456.31;;;6.16;73.69
71559;BME280;59382;43.852;25.952;2023-04-04T11:10:42;100465.72;;;6.27;73.84
71559;BME280;59382;43.852;25.952;2023-04-04T11:13:33;100458.31;;;6.29;73.87
71559;BME280;59382;43.852;25.952;2023-04-04T11:16:17;100487.41;;;6.32;73.45
71559;BME280;59382;43.852;25.952;2023-04-04T11:18:46;100456.03;;;6.26;73.54
71559;BME280;59382;43.852;25.952;2023-04-04T11:21:19;100446.56;;;6.30;73.44
71559;BME280;59382;43.852;25.952;2023-04-04T11:26:18;100453.63;;;6.31;73.66
71559;BME280;59382;43.852;25.952;2023-04-04T11:29:02;100443.28;;;6.28;73.66
71559;BME280;59382;43.852;25.952;2023-04-04T11:31:32;100447.03;;;6.33;74.11
71559;BME280;59382;43.852;25.952;2023-04-04T11:34:12;100454.50;;;6.38;73.55
71559;BME280;59382;43.852;25.952;2023-04-04T11:42:10;100467.03;;;6.52;73.40
71559;BME280;59382;43.852;25.952;2023-04-04T11:47:22;100479.78;;;6.50;73.59
71559;BME280;59382;43.852;25.952;2023-04-04T11:49:49;100466.09;;;6.45;73.36
71559;BME280;59382;43.852;25.952;2023-04-04T11:52:16;100510.53;;;6.54;73.20
71559;BME280;59382;43.852;25.952;2023-04-04T11:54:44;100480.81;;;6.49;73.34
71559;BME280;59382;43.852;25.952;2023-04-04T11:57:14;100489.66;;;6.49;73.46
71559;BME280;59382;43.852;25.952;2023-04-04T11:59:46;100488.47;;;6.52;73.53
71559;BME280;59382;43.852;25.952;2023-04-04T12:02:25;100490.13;;;6.53;74.00
71559;BME280;59382;43.852;25.952;2023-04-04T12:04:58;100496.38;;;6.60;73.57
71559;BME280;59382;43.852;25.952;2023-04-04T12:07:24;100528.53;;;6.60;73.03
71559;BME280;59382;43.852;25.952;2023-04-04T12:09:51;100503.16;;;6.56;72.96
71559;BME280;59382;43.852;25.952;2023-04-04T12:12:17;100495.47;;;6.53;73.22
71559;BME280;59382;43.852;25.952;2023-04-04T12:14:43;100480.25;;;6.53;73.25
71559;BME280;59382;43.852;25.952;2023-04-04T12:17:08;100504.03;;;6.63;72.96
71559;BME280;59382;43.852;25.952;2023-04-04T12:19:40;100494.34;;;6.62;73.59
71559;BME280;59382;43.852;25.952;2023-04-04T12:22:06;100504.69;;;6.65;73.20
71559;BME280;59382;43.852;25.952;2023-04-04T12:24:33;100499.94;;;6.67;73.33
71559;BME280;59382;43.852;25.952;2023-04-04T12:26:58;100491.72;;;6.68;73.27
71559;BME280;59382;43.852;25.952;2023-04-04T12:29:25;100492.94;;;6.66;73.02
71559;BME280;59382;43.852;25.952;2023-04-04T12:32:00;100487.31;;;6.61;73.19
71559;BME280;59382;43.852;25.952;2023-04-04T12:34:31;100461.66;;;6.52;73.31
71559;BME280;59382;43.852;25.952;2023-04-04T12:36:58;100493.19;;;6.71;72.87
71559;BME280;59382;43.852;25.952;2023-04-04T12:39:27;100479.53;;;6.66;73.34
71559;BME280;59382;43.852;25.952;2023-04-04T12:41:58;100478.75;;;6.72;72.93
71559;BME280;59382;43.852;25.952;2023-04-04T12:46:59;100450.69;;;6.68;73.33
71559;BME280;59382;43.852;25.952;2023-04-04T12:49:33;100470.44;;;6.67;73.28
71559;BME280;59382;43.852;25.952;2023-04-04T12:51:59;100470.72;;;6.72;72.99
71559;BME280;59382;43.852;25.952;2023-04-04T12:54:34;100468.50;;;6.75;73.33
71559;BME280;59382;43.852;25.952;2023-04-04T12:57:02;100442.38;;;6.63;72.97
71559;BME280;59382;43.852;25.952;2023-04-04T12:59:30;100475.97;;;6.80;72.91
71559;BME280;59382;43.852;25.952;2023-04-04T13:01:56;100469.56;;;6.81;72.75
71559;BME280;59382;43.852;25.952;2023-04-04T13:04:22;100473.88;;;6.82;73.15